createdAt,value
2023-02-23T00:01:27.972Z,14.43
2023-02-23T00:03:58.338Z,13.53
2023-02-23T00:06:28.054Z,14.43
2023-02-23T00:08:58.064Z,14.37
2023-02-23T00:11:27.271Z,16.13
2023-02-23T00:13:56.928Z,14.53
2023-02-23T00:16:27.180Z,14.70
2023-02-23T00:19:00.416Z,14.23
2023-02-23T00:21:31.550Z,14.90
2023-02-23T00:24:01.305Z,15.43
2023-02-23T00:26:31.618Z,15.07
2023-02-23T00:29:00.335Z,15.30
2023-02-23T00:31:29.797Z,15.43
2023-02-23T00:34:00.334Z,16.57
2023-02-23T00:36:29.989Z,15.03
2023-02-23T00:39:00.712Z,15.73
2023-02-23T00:41:29.948Z,16.10
2023-02-23T00:44:00.001Z,16.40
2023-02-23T00:46:30.056Z,16.13
2023-02-23T00:49:00.524Z,15.20
2023-02-23T00:51:30.990Z,14.57
2023-02-23T00:54:00.802Z,16.07
2023-02-23T00:56:29.525Z,15.23
2023-02-23T00:58:58.840Z,15.53
2023-02-23T01:01:27.844Z,15.27
2023-02-23T01:03:55.782Z,15.10
2023-02-23T01:06:26.570Z,14.47
2023-02-23T01:08:56.831Z,15.97
2023-02-23T01:11:28.807Z,15.23
2023-02-23T01:13:58.670Z,16.27
2023-02-23T01:16:28.634Z,15.77
2023-02-23T01:18:57.788Z,15.63
2023-02-23T01:21:29.822Z,14.67
2023-02-23T01:23:58.519Z,14.60
2023-02-23T01:26:28.898Z,14.70
2023-02-23T01:28:58.558Z,14.70
2023-02-23T01:31:27.178Z,15.23
2023-02-23T01:33:55.775Z,15.40
2023-02-23T01:36:25.467Z,14.80
2023-02-23T01:38:56.873Z,13.73
2023-02-23T01:41:26.842Z,14.23
2023-02-23T01:43:57.188Z,14.47
2023-02-23T01:46:25.073Z,13.40
2023-02-23T01:48:56.410Z,12.60
2023-02-23T01:51:28.138Z,13.93
2023-02-23T01:54:00.927Z,12.83
2023-02-23T01:56:32.775Z,12.20
2023-02-23T01:59:06.426Z,12.80
2023-02-23T02:01:38.590Z,12.43
2023-02-23T02:04:06.824Z,12.03
2023-02-23T02:06:37.322Z,12.17
2023-02-23T02:09:10.759Z,12.37
2023-02-23T02:11:39.316Z,11.60
2023-02-23T02:14:13.184Z,11.97
2023-02-23T02:17:11.260Z,11.50
2023-02-23T02:20:12.799Z,11.57
2023-02-23T02:23:19.682Z,11.57
2023-02-23T02:26:06.178Z,12.20
2023-02-23T02:28:59.627Z,11.27
2023-02-23T02:32:07.964Z,11.50
2023-02-23T02:35:08.060Z,11.97
2023-02-23T02:37:48.425Z,11.60
2023-02-23T02:40:23.298Z,11.70
2023-02-23T02:43:11.990Z,10.90
2023-02-23T02:45:49.922Z,10.60
2023-02-23T02:48:25.808Z,11.00
2023-02-23T02:50:59.397Z,11.47
2023-02-23T02:53:40.979Z,10.60
2023-02-23T02:56:11.055Z,10.33
2023-02-23T02:58:43.579Z,10.83
2023-02-23T03:01:33.211Z,10.53
2023-02-23T03:04:21.536Z,9.73
2023-02-23T03:07:16.115Z,10.90
2023-02-23T03:10:10.111Z,9.53
2023-02-23T03:13:02.960Z,10.90
2023-02-23T03:16:00.275Z,11.07
2023-02-23T03:19:06.287Z,10.60
2023-02-23T03:21:58.880Z,10.77
2023-02-23T03:24:53.308Z,11.47
2023-02-23T03:27:45.113Z,11.77
2023-02-23T03:30:38.173Z,11.47
2023-02-23T03:33:30.737Z,12.00
2023-02-23T03:36:21.423Z,11.43
2023-02-23T03:39:12.173Z,11.00
2023-02-23T03:42:03.149Z,12.30
2023-02-23T03:44:54.948Z,11.17
2023-02-23T03:47:43.961Z,12.27
2023-02-23T03:50:36.382Z,12.57
2023-02-23T03:53:25.821Z,14.43
2023-02-23T03:56:16.237Z,16.70
2023-02-23T03:59:06.815Z,15.47
2023-02-23T04:01:55.175Z,17.67
2023-02-23T04:04:43.028Z,17.17
2023-02-23T04:07:32.517Z,16.20
2023-02-23T04:10:17.793Z,16.80
2023-02-23T04:13:10.558Z,18.87
2023-02-23T04:15:40.289Z,18.10
2023-02-23T04:18:14.381Z,15.87
2023-02-23T04:20:42.282Z,16.83
2023-02-23T04:23:10.377Z,13.40
2023-02-23T04:25:38.208Z,15.57
2023-02-23T04:28:06.423Z,14.77
2023-02-23T04:30:34.585Z,13.80
2023-02-23T04:33:02.453Z,15.10
2023-02-23T04:35:31.674Z,12.83
2023-02-23T04:37:59.722Z,14.23
2023-02-23T04:40:28.694Z,15.27
2023-02-23T04:42:57.241Z,13.27
2023-02-23T04:45:27.074Z,12.33
2023-02-23T04:47:55.048Z,12.80
2023-02-23T04:50:22.955Z,11.73
2023-02-23T04:52:53.085Z,12.70
2023-02-23T04:55:23.388Z,11.90
2023-02-23T04:57:51.394Z,12.43
2023-02-23T05:00:20.178Z,12.33
2023-02-23T05:02:49.624Z,11.50
2023-02-23T05:05:18.674Z,12.10
2023-02-23T05:07:46.686Z,11.77
2023-02-23T05:10:15.864Z,12.43
2023-02-23T05:12:43.634Z,17.30
2023-02-23T05:15:12.271Z,12.23
2023-02-23T05:17:42.298Z,12.37
2023-02-23T05:20:12.173Z,11.17
2023-02-23T05:22:40.264Z,11.83
2023-02-23T05:25:10.137Z,12.00
2023-02-23T05:27:39.800Z,11.43
2023-02-23T05:30:09.930Z,13.80
2023-02-23T05:32:38.185Z,12.23
2023-02-23T05:35:07.122Z,12.60
2023-02-23T05:37:34.943Z,12.70
2023-02-23T05:40:02.774Z,12.47
2023-02-23T05:42:30.843Z,11.73
2023-02-23T05:45:00.005Z,11.77
2023-02-23T05:47:27.855Z,11.70
2023-02-23T05:49:55.655Z,12.00
2023-02-23T05:52:23.547Z,11.70
2023-02-23T05:54:51.460Z,11.27
2023-02-23T05:57:19.279Z,11.83
2023-02-23T05:59:47.142Z,12.37
2023-02-23T06:02:16.555Z,11.23
2023-02-23T06:04:44.826Z,11.93
2023-02-23T06:07:12.702Z,12.87
2023-02-23T06:09:42.893Z,12.73
2023-02-23T06:12:11.890Z,12.17
2023-02-23T06:14:39.757Z,12.77
2023-02-23T06:17:08.168Z,13.23
2023-02-23T06:19:37.870Z,12.67
2023-02-23T06:22:05.738Z,12.57
2023-02-23T06:24:34.378Z,11.97
2023-02-23T06:27:02.286Z,12.30
2023-02-23T06:29:30.155Z,13.30
2023-02-23T06:32:00.702Z,12.43
2023-02-23T06:34:29.038Z,12.20
2023-02-23T06:36:58.429Z,12.33
2023-02-23T06:39:26.410Z,12.77
2023-02-23T06:41:54.228Z,12.70
2023-02-23T06:44:22.620Z,13.13
2023-02-23T06:46:50.486Z,12.10
2023-02-23T06:49:18.394Z,12.17
2023-02-23T06:51:46.247Z,12.07
2023-02-23T06:54:16.228Z,12.83
2023-02-23T06:56:44.118Z,11.53
2023-02-23T06:59:12.049Z,11.60
2023-02-23T07:01:39.850Z,11.87
2023-02-23T07:04:08.182Z,12.47
2023-02-23T07:06:36.077Z,11.57
2023-02-23T07:09:03.929Z,12.40
2023-02-23T07:11:33.097Z,12.07
2023-02-23T07:14:01.472Z,12.27
2023-02-23T07:16:29.760Z,11.83
2023-02-23T07:18:57.685Z,12.10
2023-02-23T07:21:25.561Z,10.90
2023-02-23T07:23:53.458Z,13.10
2023-02-23T07:26:21.325Z,12.20
2023-02-23T07:28:51.827Z,12.73
2023-02-23T07:31:21.610Z,10.93
2023-02-23T07:33:49.640Z,9.53
2023-02-23T07:36:17.437Z,9.80
2023-02-23T07:38:45.381Z,10.37
2023-02-23T07:41:13.247Z,10.53
2023-02-23T07:43:41.251Z,10.87
2023-02-23T07:46:10.507Z,10.50
2023-02-23T07:48:39.284Z,10.37
2023-02-23T07:51:11.144Z,10.93
2023-02-23T07:53:38.984Z,9.80
2023-02-23T07:56:08.414Z,9.83
2023-02-23T07:58:36.396Z,10.53
2023-02-23T08:01:05.219Z,11.57
2023-02-23T08:03:34.705Z,9.67
2023-02-23T08:06:02.579Z,10.73
2023-02-23T08:08:30.424Z,9.93
2023-02-23T08:11:01.825Z,10.07
2023-02-23T08:13:29.834Z,9.93
2023-02-23T08:15:57.959Z,10.23
2023-02-23T08:18:26.256Z,9.40
2023-02-23T08:21:00.417Z,10.70
2023-02-23T08:23:30.377Z,10.03
2023-02-23T08:25:59.701Z,9.83
2023-02-23T08:28:28.150Z,10.20
2023-02-23T08:30:56.195Z,9.80
2023-02-23T08:33:24.226Z,9.67
2023-02-23T08:35:53.525Z,9.20
2023-02-23T08:38:22.823Z,10.33
2023-02-23T08:40:50.681Z,9.50
2023-02-23T08:43:18.505Z,8.60
2023-02-23T08:45:46.439Z,8.03
2023-02-23T08:48:14.300Z,8.97
2023-02-23T08:50:42.087Z,8.43
2023-02-23T08:53:10.617Z,9.13
2023-02-23T08:55:40.270Z,9.50
2023-02-23T08:58:10.773Z,9.83
2023-02-23T09:00:39.382Z,9.50
2023-02-23T09:03:07.806Z,8.73
2023-02-23T09:05:38.832Z,9.37
2023-02-23T09:08:07.243Z,9.30
2023-02-23T09:10:36.184Z,9.03
2023-02-23T09:13:05.376Z,9.00
2023-02-23T09:15:33.178Z,9.00
2023-02-23T09:18:02.368Z,8.30
2023-02-23T09:20:30.257Z,8.87
2023-02-23T09:22:58.101Z,9.03
2023-02-23T09:25:27.254Z,8.80
2023-02-23T09:27:57.032Z,8.93
2023-02-23T09:30:27.913Z,8.40
2023-02-23T09:32:56.586Z,9.30
2023-02-23T09:35:25.573Z,7.83
2023-02-23T09:37:56.389Z,8.37
2023-02-23T09:40:26.215Z,8.43
2023-02-23T09:43:03.912Z,7.80
2023-02-23T09:45:41.001Z,6.90
2023-02-23T09:48:18.999Z,7.07
2023-02-23T09:50:50.917Z,6.20
2023-02-23T09:53:34.077Z,5.07
2023-02-23T09:56:04.175Z,5.23
2023-02-23T09:58:35.258Z,5.67
2023-02-23T10:01:34.694Z,5.23
2023-02-23T10:04:08.747Z,5.00
2023-02-23T10:06:36.573Z,5.17
2023-02-23T10:09:15.639Z,5.53
2023-02-23T10:11:51.530Z,4.80
2023-02-23T10:14:31.680Z,3.47
2023-02-23T10:17:15.610Z,3.70
2023-02-23T10:19:52.198Z,3.80
2023-02-23T10:22:21.748Z,4.50
2023-02-23T10:24:55.293Z,4.10
2023-02-23T10:27:29.043Z,3.93
2023-02-23T10:30:00.232Z,3.10
2023-02-23T10:32:38.999Z,2.03
2023-02-23T10:35:12.856Z,2.37
2023-02-23T10:37:40.789Z,2.77
2023-02-23T10:40:16.627Z,2.30
2023-02-23T10:42:44.895Z,2.50
2023-02-23T10:45:19.716Z,2.20
2023-02-23T10:47:51.297Z,2.30
2023-02-23T10:50:22.489Z,2.27
2023-02-23T10:52:54.045Z,2.40
2023-02-23T10:55:26.359Z,2.10
2023-02-23T10:58:04.279Z,2.37
2023-02-23T11:00:33.795Z,2.10
2023-02-23T11:03:04.377Z,2.10
2023-02-23T11:05:36.054Z,1.90
2023-02-23T11:08:22.290Z,2.50
2023-02-23T11:10:58.505Z,2.40
2023-02-23T11:13:28.916Z,2.27
2023-02-23T11:16:05.834Z,2.33
2023-02-23T11:18:35.203Z,2.80
2023-02-23T11:21:03.263Z,3.37
2023-02-23T11:23:35.947Z,3.43
2023-02-23T11:26:05.902Z,3.33
2023-02-23T11:28:35.768Z,3.63
2023-02-23T11:31:06.084Z,3.77
2023-02-23T11:33:37.469Z,4.10
2023-02-23T11:36:26.580Z,4.27
2023-02-23T11:39:03.406Z,3.30
2023-02-23T11:41:32.901Z,3.90
2023-02-23T11:44:06.104Z,3.57
2023-02-23T11:46:39.271Z,3.50
2023-02-23T11:49:09.930Z,4.10
2023-02-23T11:51:41.244Z,3.63
2023-02-23T11:54:21.281Z,3.70
2023-02-23T11:56:52.080Z,3.77
2023-02-23T11:59:26.455Z,3.60
2023-02-23T12:01:57.844Z,3.73
2023-02-23T12:04:31.494Z,3.77
2023-02-23T12:07:24.817Z,3.80
2023-02-23T12:10:03.051Z,3.33
2023-02-23T12:12:34.673Z,3.57
2023-02-23T12:15:09.486Z,3.40
2023-02-23T12:17:42.055Z,3.80
2023-02-23T12:20:19.078Z,4.17
2023-02-23T12:22:52.422Z,4.23
2023-02-23T12:25:26.789Z,3.43
2023-02-23T12:28:10.389Z,4.37
2023-02-23T12:30:49.750Z,3.43
2023-02-23T12:33:29.303Z,3.73
2023-02-23T12:36:04.771Z,3.80
2023-02-23T12:38:41.521Z,4.33
2023-02-23T12:41:13.514Z,3.73
2023-02-23T12:43:49.479Z,3.50
2023-02-23T12:46:23.104Z,3.90
2023-02-23T12:48:57.398Z,3.97
2023-02-23T12:51:34.543Z,4.10
2023-02-23T12:54:04.352Z,3.80
2023-02-23T12:56:45.447Z,3.73
2023-02-23T12:59:26.145Z,3.63
2023-02-23T13:01:58.595Z,4.77
2023-02-23T13:04:40.660Z,3.00
2023-02-23T13:07:19.511Z,4.00
2023-02-23T13:10:01.178Z,3.37
2023-02-23T13:12:51.727Z,3.23
2023-02-23T13:15:27.310Z,3.17
2023-02-23T13:18:01.616Z,3.30
2023-02-23T13:20:37.125Z,3.60
2023-02-23T13:23:15.680Z,3.40
2023-02-23T13:25:55.573Z,2.60
2023-02-23T13:28:43.089Z,2.80
2023-02-23T13:31:23.403Z,3.20
2023-02-23T13:33:53.076Z,3.13
2023-02-23T13:36:22.788Z,3.03
2023-02-23T13:39:19.174Z,2.90
2023-02-23T13:41:55.950Z,2.80
2023-02-23T13:44:34.199Z,2.70
2023-02-23T13:47:12.876Z,3.10
2023-02-23T13:49:47.511Z,4.20
2023-02-23T13:52:23.277Z,4.13
2023-02-23T13:55:02.040Z,3.67
2023-02-23T13:57:31.693Z,4.30
2023-02-23T14:00:00.802Z,4.77
2023-02-23T14:02:38.051Z,4.20
2023-02-23T14:05:16.657Z,4.30
2023-02-23T14:07:47.926Z,3.63
2023-02-23T14:10:21.972Z,4.17
2023-02-23T14:13:08.275Z,4.63
2023-02-23T14:15:45.765Z,4.67
2023-02-23T14:18:33.501Z,5.03
2023-02-23T14:21:11.261Z,4.13
2023-02-23T14:23:53.091Z,4.53
2023-02-23T14:26:42.479Z,4.50
2023-02-23T14:29:26.637Z,4.90
2023-02-23T14:32:06.010Z,5.00
2023-02-23T14:34:51.094Z,5.70
2023-02-23T14:37:32.083Z,4.03
2023-02-23T14:40:11.997Z,3.97
2023-02-23T14:42:42.159Z,3.77
2023-02-23T14:45:20.654Z,3.50
2023-02-23T14:47:51.843Z,3.80
2023-02-23T14:50:26.814Z,2.90
2023-02-23T14:52:56.553Z,2.60
2023-02-23T14:55:28.894Z,2.50
2023-02-23T14:57:58.965Z,2.83
2023-02-23T15:00:28.877Z,2.57
2023-02-23T15:03:00.223Z,3.33
2023-02-23T15:05:30.247Z,2.80
2023-02-23T15:08:01.145Z,3.30
2023-02-23T15:10:33.872Z,3.23
2023-02-23T15:13:10.276Z,3.00
2023-02-23T15:15:45.327Z,3.53
2023-02-23T15:18:23.361Z,3.33
2023-02-23T15:20:51.673Z,3.13
2023-02-23T15:23:20.582Z,3.23
2023-02-23T15:25:51.083Z,3.90
2023-02-23T15:28:27.940Z,4.40
2023-02-23T15:30:57.485Z,4.13
2023-02-23T15:33:28.821Z,3.97
2023-02-23T15:36:04.189Z,4.43
2023-02-23T15:38:43.344Z,4.00
2023-02-23T15:41:18.956Z,5.03
2023-02-23T15:43:48.501Z,5.00
2023-02-23T15:46:24.066Z,4.60
2023-02-23T15:48:54.567Z,4.03
2023-02-23T15:51:31.522Z,4.57
2023-02-23T15:54:01.526Z,4.53
2023-02-23T15:56:30.943Z,3.80
2023-02-23T15:59:08.143Z,4.40
2023-02-23T16:01:43.917Z,4.17
2023-02-23T16:04:18.551Z,4.20
2023-02-23T16:07:07.892Z,4.03
2023-02-23T16:09:39.518Z,4.27
2023-02-23T16:12:14.184Z,4.30
2023-02-23T16:14:47.798Z,4.63
2023-02-23T16:17:25.962Z,4.33
2023-02-23T16:19:56.402Z,4.67
2023-02-23T16:22:27.004Z,4.57
2023-02-23T16:25:00.530Z,4.50
2023-02-23T16:27:30.623Z,3.70
2023-02-23T16:30:07.020Z,4.40
2023-02-23T16:32:37.974Z,4.10
2023-02-23T16:35:15.298Z,4.00
2023-02-23T16:37:59.101Z,4.17
2023-02-23T16:40:26.982Z,4.57
2023-02-23T16:42:59.054Z,4.57
2023-02-23T16:45:29.539Z,4.50
2023-02-23T16:48:02.054Z,4.03
2023-02-23T16:50:30.760Z,3.97
2023-02-23T16:52:58.613Z,4.60
2023-02-23T16:55:28.708Z,4.20
2023-02-23T16:57:59.024Z,4.17
2023-02-23T17:00:30.792Z,4.40
2023-02-23T17:03:00.899Z,4.80
2023-02-23T17:05:30.445Z,4.13
2023-02-23T17:07:59.148Z,4.30
2023-02-23T17:10:29.554Z,4.57
2023-02-23T17:12:58.979Z,4.53
2023-02-23T17:15:31.029Z,4.60
2023-02-23T17:17:58.923Z,5.83
2023-02-23T17:20:27.887Z,4.97
2023-02-23T17:22:57.175Z,4.67
2023-02-23T17:25:26.562Z,5.40
2023-02-23T17:27:54.652Z,5.33
2023-02-23T17:30:23.372Z,6.43
2023-02-23T17:32:54.766Z,5.90
2023-02-23T17:35:23.371Z,7.23
2023-02-23T17:37:51.549Z,8.20
2023-02-23T17:40:28.864Z,8.13
2023-02-23T17:42:58.559Z,8.70
2023-02-23T17:45:29.227Z,7.60
2023-02-23T17:47:59.399Z,9.17
2023-02-23T17:50:28.024Z,9.20
2023-02-23T17:52:56.996Z,10.00
2023-02-23T17:55:25.872Z,11.13
2023-02-23T17:57:53.781Z,10.37
2023-02-23T18:00:22.298Z,10.77
2023-02-23T18:02:50.267Z,9.70
2023-02-23T18:05:19.726Z,8.80
2023-02-23T18:07:48.643Z,8.27
2023-02-23T18:10:17.510Z,8.03
2023-02-23T18:12:47.533Z,8.23
2023-02-23T18:15:15.513Z,8.03
2023-02-23T18:17:43.402Z,7.87
2023-02-23T18:20:14.903Z,7.10
2023-02-23T18:22:44.424Z,7.90
2023-02-23T18:25:21.259Z,9.80
2023-02-23T18:27:51.524Z,11.20
2023-02-23T18:30:19.851Z,11.37
2023-02-23T18:32:48.166Z,12.17
2023-02-23T18:35:16.121Z,11.40
2023-02-23T18:37:45.413Z,10.90
2023-02-23T18:40:21.239Z,9.67
2023-02-23T18:42:49.206Z,10.10
2023-02-23T18:45:17.807Z,9.87
2023-02-23T18:47:45.786Z,8.33
2023-02-23T18:50:19.027Z,9.60
2023-02-23T18:52:50.782Z,10.80
2023-02-23T18:55:19.769Z,10.40
2023-02-23T18:57:48.197Z,11.47
2023-02-23T19:00:19.064Z,10.73
2023-02-23T19:02:47.415Z,12.20
2023-02-23T19:05:16.599Z,14.20
2023-02-23T19:07:45.240Z,61.77
2023-02-23T19:10:16.362Z,39.73
2023-02-23T19:12:44.536Z,19.23
2023-02-23T19:15:13.293Z,18.87
2023-02-23T19:17:41.156Z,14.30
2023-02-23T19:20:13.076Z,12.03
2023-02-23T19:22:42.100Z,9.73
2023-02-23T19:25:14.529Z,10.00
2023-02-23T19:27:44.395Z,10.27
2023-02-23T19:30:14.553Z,9.23
2023-02-23T19:32:43.411Z,10.23
2023-02-23T19:35:14.523Z,9.97
2023-02-23T19:37:48.357Z,9.07
2023-02-23T19:40:20.720Z,9.60
2023-02-23T19:42:52.698Z,8.80
2023-02-23T19:45:21.818Z,8.97
2023-02-23T19:47:52.591Z,9.03
2023-02-23T19:50:21.237Z,10.70
2023-02-23T19:52:50.037Z,11.30
2023-02-23T19:55:20.288Z,12.17
2023-02-23T19:57:48.192Z,11.63
2023-02-23T20:00:18.615Z,10.53
2023-02-23T20:02:52.284Z,10.60
2023-02-23T20:05:20.278Z,10.43
2023-02-23T20:07:48.471Z,12.80
2023-02-23T20:10:16.886Z,12.37
2023-02-23T20:12:44.927Z,12.23
2023-02-23T20:15:14.778Z,14.23
2023-02-23T20:17:44.087Z,14.90
2023-02-23T20:20:13.236Z,15.83
2023-02-23T20:22:43.258Z,15.70
2023-02-23T20:25:12.620Z,14.33
2023-02-23T20:27:41.391Z,15.00
2023-02-23T20:30:10.787Z,15.63
2023-02-23T20:32:39.015Z,14.47
2023-02-23T20:35:11.314Z,13.10
2023-02-23T20:37:49.769Z,12.43
2023-02-23T20:40:27.372Z,12.20
2023-02-23T20:42:55.236Z,12.57
2023-02-23T20:45:25.772Z,13.00
2023-02-23T20:47:54.072Z,12.73
2023-02-23T20:50:28.514Z,12.87
2023-02-23T20:52:57.054Z,14.53
2023-02-23T20:55:27.129Z,12.73
2023-02-23T20:57:55.920Z,14.07
2023-02-23T21:00:32.047Z,13.67
2023-02-23T21:03:01.720Z,14.87
2023-02-23T21:05:33.077Z,13.50
2023-02-23T21:08:01.981Z,15.13
2023-02-23T21:10:32.366Z,14.77
2023-02-23T21:13:00.915Z,18.33
2023-02-23T21:15:30.055Z,15.57
2023-02-23T21:17:59.427Z,14.27
2023-02-23T21:20:27.879Z,14.23
2023-02-23T21:22:57.234Z,16.27
2023-02-23T21:25:26.758Z,16.97
2023-02-23T21:27:55.143Z,16.43
2023-02-23T21:30:28.590Z,16.90
2023-02-23T21:32:59.482Z,15.80
2023-02-23T21:35:27.464Z,15.00
2023-02-23T21:37:55.300Z,15.67
2023-02-23T21:40:24.937Z,16.53
2023-02-23T21:42:53.357Z,16.63
2023-02-23T21:45:21.426Z,17.47
2023-02-23T21:47:50.093Z,17.27
2023-02-23T21:50:20.132Z,17.53
2023-02-23T21:52:51.200Z,17.77
2023-02-23T21:55:22.739Z,17.73
2023-02-23T21:57:52.844Z,18.90
2023-02-23T22:00:22.752Z,18.47
2023-02-23T22:02:51.395Z,17.50
2023-02-23T22:05:20.717Z,18.53
2023-02-23T22:07:50.015Z,17.40
2023-02-23T22:10:19.396Z,16.33
2023-02-23T22:12:47.577Z,15.80
2023-02-23T22:15:17.190Z,16.10
2023-02-23T22:17:45.380Z,14.73
2023-02-23T22:20:13.906Z,16.13
2023-02-23T22:22:42.866Z,15.90
2023-02-23T22:25:11.677Z,15.97
2023-02-23T22:27:41.590Z,17.27
2023-02-23T22:30:12.175Z,16.50
2023-02-23T22:32:42.598Z,16.50
2023-02-23T22:35:11.799Z,16.17
2023-02-23T22:37:39.814Z,17.30
2023-02-23T22:40:14.369Z,14.90
2023-02-23T22:42:43.429Z,15.87
2023-02-23T22:45:12.579Z,15.97
2023-02-23T22:47:41.875Z,15.90
2023-02-23T22:50:12.185Z,15.80
2023-02-23T22:52:40.739Z,16.60
2023-02-23T22:55:09.431Z,16.97
2023-02-23T22:57:37.332Z,16.43
2023-02-23T23:00:08.408Z,17.37
2023-02-23T23:02:36.678Z,16.10
2023-02-23T23:05:07.119Z,15.13
2023-02-23T23:07:35.054Z,16.13
2023-02-23T23:10:05.430Z,16.60
2023-02-23T23:12:34.429Z,15.53
2023-02-23T23:15:03.154Z,16.00
2023-02-23T23:17:32.521Z,16.47
2023-02-23T23:20:01.153Z,14.97
2023-02-23T23:22:33.229Z,15.83
2023-02-23T23:25:01.106Z,15.30
2023-02-23T23:27:28.913Z,15.67
2023-02-23T23:29:57.310Z,16.17
2023-02-23T23:32:27.494Z,16.77
2023-02-23T23:34:57.324Z,17.40
2023-02-23T23:37:29.018Z,16.77
2023-02-23T23:40:00.238Z,17.23
2023-02-23T23:42:28.281Z,17.83
2023-02-23T23:44:57.018Z,16.20
2023-02-23T23:47:25.123Z,16.73
2023-02-23T23:49:54.732Z,16.60
2023-02-23T23:52:22.825Z,16.77
2023-02-23T23:54:50.767Z,15.87
2023-02-23T23:57:21.221Z,16.03
2023-02-23T23:59:49.567Z,16.93
